createdAt,value
2023-02-06T00:04:14.825Z,25.30
2023-02-06T00:09:22.838Z,23.08
2023-02-06T00:14:29.704Z,27.73
2023-02-06T00:19:36.376Z,31.00
2023-02-06T00:24:44.503Z,25.67
2023-02-06T00:29:51.163Z,27.52
2023-02-06T00:34:58.018Z,27.58
2023-02-06T00:40:06.795Z,26.45
2023-02-06T00:45:14.264Z,28.48
2023-02-06T00:50:22.667Z,28.88
2023-02-06T00:55:30.744Z,29.58
2023-02-06T01:00:37.605Z,30.38
2023-02-06T01:05:44.343Z,26.13
2023-02-06T01:10:52.126Z,28.58
2023-02-06T01:15:58.336Z,29.50
2023-02-06T01:21:08.658Z,27.20
2023-02-06T01:26:19.533Z,27.70
2023-02-06T01:31:27.901Z,24.63
2023-02-06T01:36:34.217Z,26.15
2023-02-06T01:41:41.927Z,24.67
2023-02-06T01:46:52.304Z,22.70
2023-02-06T01:52:04.608Z,24.92
2023-02-06T01:57:14.795Z,22.45
2023-02-06T02:02:21.179Z,22.02
2023-02-06T02:07:33.890Z,23.20
2023-02-06T02:12:41.756Z,22.42
2023-02-06T02:17:57.989Z,19.60
2023-02-06T02:23:19.924Z,22.35
2023-02-06T02:29:16.624Z,19.73
2023-02-06T02:35:09.589Z,20.70
2023-02-06T02:40:26.928Z,21.17
2023-02-06T02:45:42.121Z,19.75
2023-02-06T02:50:49.975Z,20.08
2023-02-06T02:55:56.663Z,17.40
2023-02-06T03:01:11.759Z,16.85
2023-02-06T03:06:40.564Z,22.92
2023-02-06T03:11:57.529Z,21.15
2023-02-06T03:17:10.892Z,19.17
2023-02-06T03:22:19.572Z,20.13
2023-02-06T03:32:36.540Z,19.83
2023-02-06T03:37:44.416Z,19.98
2023-02-06T03:42:55.236Z,21.55
2023-02-06T03:48:04.341Z,20.42
2023-02-06T03:53:14.783Z,20.27
2023-02-06T03:58:22.050Z,24.30
2023-02-06T04:03:29.820Z,23.50
2023-02-06T04:08:37.430Z,22.35
2023-02-06T04:13:43.487Z,21.75
2023-02-06T04:18:49.529Z,22.15
2023-02-06T04:23:57.065Z,22.38
2023-02-06T04:29:03.221Z,21.77
2023-02-06T04:34:09.795Z,23.77
2023-02-06T04:39:17.361Z,22.00
2023-02-06T04:44:24.196Z,18.60
2023-02-06T04:49:30.463Z,23.25
2023-02-06T04:54:38.256Z,22.92
2023-02-06T04:59:44.598Z,23.43
2023-02-06T05:04:50.784Z,27.95
2023-02-06T05:09:58.596Z,24.80
2023-02-06T05:15:05.340Z,21.63
2023-02-06T05:20:13.248Z,26.33
2023-02-06T05:25:21.509Z,27.03
2023-02-06T05:30:27.931Z,27.38
2023-02-06T05:35:35.050Z,25.02
2023-02-06T05:40:43.057Z,25.10
2023-02-06T05:45:49.460Z,25.70
2023-02-06T05:50:55.673Z,27.98
2023-02-06T05:56:03.592Z,27.67
2023-02-06T06:01:09.915Z,25.70
2023-02-06T06:06:16.322Z,29.27
2023-02-06T06:11:24.137Z,25.08
2023-02-06T06:16:30.631Z,18.80
2023-02-06T06:21:37.096Z,24.38
2023-02-06T06:26:45.128Z,27.58
2023-02-06T06:31:51.408Z,25.88
2023-02-06T06:36:57.757Z,28.00
2023-02-06T06:42:05.758Z,28.52
2023-02-06T06:47:12.225Z,34.45
2023-02-06T06:52:25.056Z,27.00
2023-02-06T06:57:34.960Z,27.63
2023-02-06T07:02:42.065Z,28.45
2023-02-06T07:07:48.819Z,28.38
2023-02-06T07:12:57.066Z,30.17
2023-02-06T07:18:03.506Z,28.83
2023-02-06T07:23:09.712Z,31.60
2023-02-06T07:28:17.469Z,29.00
2023-02-06T07:33:23.788Z,28.17
2023-02-06T07:38:29.968Z,27.55
2023-02-06T07:43:37.623Z,26.85
2023-02-06T07:48:44.016Z,26.03
2023-02-06T07:53:50.980Z,29.10
2023-02-06T07:58:58.461Z,27.58
2023-02-06T08:04:04.725Z,28.10
2023-02-06T08:09:14.253Z,24.65
2023-02-06T08:14:28.819Z,30.98
2023-02-06T08:19:34.983Z,26.85
2023-02-06T08:24:41.314Z,24.45
2023-02-06T08:29:49.160Z,27.35
2023-02-06T08:34:55.383Z,23.07
2023-02-06T08:40:01.607Z,29.50
2023-02-06T08:45:11.699Z,28.35
2023-02-06T08:50:18.906Z,30.98
2023-02-06T08:55:25.137Z,26.98
2023-02-06T09:00:33.159Z,31.65
2023-02-06T09:05:39.519Z,33.67
2023-02-06T09:10:45.767Z,38.22
2023-02-06T09:15:56.142Z,39.50
2023-02-06T09:21:10.390Z,31.33
2023-02-06T09:26:19.418Z,27.40
2023-02-06T09:31:29.377Z,29.95
2023-02-06T09:36:37.856Z,30.05
2023-02-06T09:41:47.041Z,30.00
2023-02-06T09:46:59.760Z,28.98
2023-02-06T09:52:25.981Z,29.23
2023-02-06T09:57:47.494Z,29.95
2023-02-06T10:03:41.535Z,32.50
2023-02-06T10:08:57.084Z,29.90
2023-02-06T10:14:07.190Z,26.67
2023-02-06T10:19:22.818Z,29.65
2023-02-06T10:24:41.196Z,28.35
2023-02-06T10:29:49.238Z,34.58
2023-02-06T10:35:26.435Z,28.92
2023-02-06T10:40:47.084Z,27.50
2023-02-06T10:46:07.293Z,29.90
2023-02-06T10:51:26.375Z,27.52
2023-02-06T10:56:40.865Z,29.20
2023-02-06T11:01:49.004Z,26.27
2023-02-06T11:07:06.023Z,23.15
2023-02-06T11:12:31.135Z,26.98
2023-02-06T11:17:37.538Z,28.70
2023-02-06T11:22:52.757Z,27.73
2023-02-06T11:28:01.917Z,27.00
2023-02-06T11:33:10.824Z,28.48
2023-02-06T11:43:27.593Z,27.95
2023-02-06T11:48:40.577Z,27.33
2023-02-06T11:54:03.190Z,27.05
2023-02-06T11:59:23.434Z,28.17
2023-02-06T12:04:36.975Z,24.88
2023-02-06T12:09:44.683Z,28.77
2023-02-06T12:14:56.053Z,29.35
2023-02-06T12:20:09.622Z,26.10
2023-02-06T12:25:31.527Z,24.85
2023-02-06T12:30:51.662Z,25.52
2023-02-06T12:41:29.028Z,26.58
2023-02-06T12:46:35.703Z,29.02
2023-02-06T12:51:50.693Z,32.33
2023-02-06T12:57:05.879Z,44.15
2023-02-06T13:02:26.319Z,32.97
2023-02-06T13:07:41.550Z,29.50
2023-02-06T13:13:00.606Z,28.25
2023-02-06T13:18:52.882Z,27.50
2023-02-06T13:24:21.279Z,27.60
2023-02-06T13:29:29.901Z,25.92
2023-02-06T13:34:36.287Z,27.08
2023-02-06T13:39:42.698Z,25.42
2023-02-06T13:44:50.947Z,26.02
2023-02-06T13:50:48.303Z,24.08
2023-02-06T13:56:18.777Z,24.00
2023-02-06T14:01:31.551Z,24.52
2023-02-06T14:07:07.691Z,24.70
2023-02-06T14:12:34.489Z,23.23
2023-02-06T14:18:00.787Z,22.65
2023-02-06T14:23:17.962Z,20.67
2023-02-06T14:28:34.295Z,20.55
2023-02-06T14:34:21.848Z,20.45
2023-02-06T14:39:48.626Z,18.42
2023-02-06T14:44:59.358Z,18.75
2023-02-06T14:50:09.226Z,16.05
2023-02-06T14:55:37.774Z,14.43
2023-02-06T15:00:44.282Z,17.02
2023-02-06T15:06:04.533Z,16.52
2023-02-06T15:11:22.661Z,16.70
2023-02-06T15:16:30.703Z,16.20
2023-02-06T15:21:39.133Z,13.37
2023-02-06T15:26:56.203Z,15.18
2023-02-06T15:32:07.146Z,14.02
2023-02-06T15:37:27.670Z,11.68
2023-02-06T15:43:10.051Z,13.77
2023-02-06T15:48:36.622Z,11.63
2023-02-06T15:53:48.469Z,11.35
2023-02-06T15:59:00.046Z,11.02
2023-02-06T16:04:14.271Z,9.98
2023-02-06T16:09:24.401Z,9.68
2023-02-06T16:14:37.353Z,9.10
2023-02-06T16:19:53.592Z,9.25
2023-02-06T16:30:33.469Z,9.50
2023-02-06T16:35:40.615Z,10.43
2023-02-06T16:40:47.088Z,9.93
2023-02-06T16:45:55.514Z,9.82
2023-02-06T16:51:02.528Z,10.77
2023-02-06T16:56:15.326Z,9.40
2023-02-06T17:01:29.861Z,10.63
2023-02-06T17:06:39.289Z,11.10
2023-02-06T17:11:46.650Z,12.95
2023-02-06T17:16:56.434Z,13.63
2023-02-06T17:22:03.514Z,13.15
2023-02-06T17:27:15.251Z,13.25
2023-02-06T17:32:23.877Z,14.05
2023-02-06T17:37:31.432Z,14.52
2023-02-06T17:42:38.515Z,15.35
2023-02-06T17:47:48.166Z,15.02
2023-02-06T17:52:57.064Z,17.80
2023-02-06T17:58:05.189Z,16.70
2023-02-06T18:03:17.334Z,14.75
2023-02-06T18:08:24.732Z,16.35
2023-02-06T18:13:31.202Z,19.90
2023-02-06T18:18:41.907Z,16.08
2023-02-06T18:23:51.115Z,17.40
2023-02-06T18:28:59.271Z,21.58
2023-02-06T18:34:10.393Z,17.65
2023-02-06T18:39:18.936Z,15.85
2023-02-06T18:44:30.108Z,23.70
2023-02-06T18:49:40.832Z,20.65
2023-02-06T18:54:54.933Z,21.27
2023-02-06T19:00:10.148Z,19.77
2023-02-06T19:05:21.239Z,23.13
2023-02-06T19:10:30.094Z,21.33
2023-02-06T19:20:49.790Z,22.40
2023-02-06T19:25:57.583Z,23.20
2023-02-06T19:31:09.561Z,23.55
2023-02-06T19:36:26.317Z,22.50
2023-02-06T19:41:37.332Z,27.17
2023-02-06T19:46:45.993Z,29.65
2023-02-06T19:51:57.932Z,26.58
2023-02-06T19:57:05.619Z,25.15
2023-02-06T20:02:20.724Z,25.80
2023-02-06T20:07:32.253Z,23.63
2023-02-06T20:12:42.144Z,27.08
2023-02-06T20:17:53.073Z,24.45
2023-02-06T20:23:03.302Z,26.75
2023-02-06T20:28:13.685Z,31.52
2023-02-06T20:33:23.721Z,31.05
2023-02-06T20:38:36.323Z,25.90
2023-02-06T20:43:47.982Z,26.90
2023-02-06T20:49:00.854Z,26.08
2023-02-06T20:54:12.350Z,33.53
2023-02-06T20:59:24.542Z,34.13
2023-02-06T21:04:35.944Z,26.02
2023-02-06T21:09:44.493Z,28.90
2023-02-06T21:14:52.508Z,29.77
2023-02-06T21:19:59.197Z,27.17
2023-02-06T21:25:08.418Z,30.00
2023-02-06T21:30:16.472Z,27.80
2023-02-06T21:35:23.608Z,32.20
2023-02-06T21:40:31.396Z,33.85
2023-02-06T21:45:40.742Z,33.10
2023-02-06T21:50:47.033Z,33.65
2023-02-06T21:55:54.617Z,32.67
2023-02-06T22:01:00.929Z,31.80
2023-02-06T22:06:08.950Z,33.42
2023-02-06T22:11:20.486Z,35.70
2023-02-06T22:16:28.097Z,34.63
2023-02-06T22:21:35.407Z,34.63
2023-02-06T22:26:43.655Z,35.83
2023-02-06T22:31:50.101Z,35.50
2023-02-06T22:36:56.539Z,35.67
2023-02-06T22:42:04.216Z,36.50
2023-02-06T22:47:10.608Z,32.53
2023-02-06T22:52:34.389Z,31.45
2023-02-06T22:57:42.267Z,31.20
2023-02-06T23:02:48.548Z,31.30
2023-02-06T23:07:54.745Z,29.20
2023-02-06T23:13:02.498Z,30.70
2023-02-06T23:18:08.899Z,31.20
2023-02-06T23:23:15.284Z,29.55
2023-02-06T23:28:24.350Z,29.25
2023-02-06T23:38:36.667Z,28.55
2023-02-06T23:43:45.110Z,27.90
2023-02-06T23:48:52.481Z,29.75
2023-02-06T23:53:58.742Z,28.35
2023-02-06T23:59:08.684Z,30.00
